Ana Sayfa
METAR-TAF:

METAR-TAF

Havaalanları :

Niamey, Nijer

Enlem: 13-29N, Boylam: 002-10E, yükseklik: 223 m

Güncel hava durumu gözlemi

Rapor saat 03:00 UTC de 29 dakika önce yapıldı.
Rüzgar kuzeydan 5 kt
Sıcaklık 18°C
Nem 30%
Basınç 1015 hPa
Görüş mesafesi 10 km veya daha fazla
1500 m altında bulut yok ve kümülonimbus yok

METAR: DRRN 110300Z 01005KT CAVOK 18/M00 Q1015 NOSIG

Saat: 04:29 (03:29 UTC)

Tahmin

Rapor saat 17:00 UTC de 10 saat ve 29 dakika önce yapıldı.
Ayın 10'si saat 18 UTC'den ayın 11'si saat 24 UTC'ye kadar geçerli Tahmin
Rüzgar doğu/kuzeydoğudan 7 kt
Görüş mesafesi: 8000 m
Geçici
ayın 10'si saat 18 UTC'den ayın 10'si saat 21 UTC'ye kadar
Görüş mesafesi: 4000 m
yaygın toz
Geçici
ayın 11'si saat 06 UTC'den ayın 11'si saat 09 UTC'ye kadar
Görüş mesafesi: 4000 m
yaygın toz

TAF: DRRN 101700Z 1018/1124 06007KT 8000 NSC TEMPO 1018/1021 4000 DU TEMPO 1106/1109 4000 DU

4.000'den fazla havaalanı için hava durumu gözlemleri ve tahminleri (METAR ve TAF raporları).

Kullanılabilir istasyonlar harita üzerinde sarı ve kırmızı noktalarla gösterilir.

İstasyonun adını görmek için fareyi noktanın üzerinde gezdirin.

Sonrasında hava gözlem ve tahminlerini görmek için tıklayın.

Haritayı değiştirmek için: yaklaştırmak için siyah artı işaretli yeşil düğmeye ve uzaklaştırmak için de eksi işaretli düğmeye hızla tıklayın; bitişik haritalar için yeşil okları kullanın.


METAR-TAF: